Terminal Aerodrome Forecast
Issued by NWS

Home | Current Version | Previous Version | Text Only | Print | Product List | Glossary On
Versions: 1 2 3 4 5 6 7 8 9 10 11 12 13
046
FTUS45 KABQ 200019 AAA
TAFAEG
TAF AMD
KAEG 200019Z 2000/2024 29014G24KT P6SM VCSH BKN070
     FM200400 22006KT P6SM FEW005 BKN100
     FM201600 19006KT P6SM FEW100
     FM201900 22012G22KT P6SM SKC=

USA.gov is the U.S. government's official web portal to all federal, state and local government web resources and services.